Terminal Aerodrome Forecast
Issued by NWS

Home | Current Version | Previous Version | Text Only | Print | Product List | Glossary On
Versions: 1 2 3 4 5 6 7 8 9 10 11 12 13 14
000
FTUS44 KLIX 312300 RRA
TAFMCB
TAF
KMCB 312340Z 0100/0124 03006KT P6SM FEW120
     FM010100 00000KT P6SM BKN150
     FM011400 VRB03KT P6SM FEW035 BKN120=

USA.gov is the U.S. government's official web portal to all federal, state and local government web resources and services.